sensor_id;sensor_type;location;lat;lon;timestamp;temperature;humidity
6260;DHT22;3163;51.516;4.000;2023-03-01T00:01:23;7.60;99.90
6260;DHT22;3163;51.516;4.000;2023-03-01T00:03:49;7.60;99.90
6260;DHT22;3163;51.516;4.000;2023-03-01T00:06:15;7.60;99.90
6260;DHT22;3163;51.516;4.000;2023-03-01T00:08:41;7.50;99.90
6260;DHT22;3163;51.516;4.000;2023-03-01T00:11:13;7.60;99.90
6260;DHT22;3163;51.516;4.000;2023-03-01T00:13:40;7.50;99.90
6260;DHT22;3163;51.516;4.000;2023-03-01T00:16:08;7.50;99.90
6260;DHT22;3163;51.516;4.000;2023-03-01T00:18:34;7.50;99.90
6260;DHT22;3163;51.516;4.000;2023-03-01T00:21:00;7.50;99.90
6260;DHT22;3163;51.516;4.000;2023-03-01T00:23:26;7.50;99.90
6260;DHT22;3163;51.516;4.000;2023-03-01T00:25:53;7.50;99.90
6260;DHT22;3163;51.516;4.000;2023-03-01T00:28:19;7.40;99.90
6260;DHT22;3163;51.516;4.000;2023-03-01T00:30:45;7.40;99.90
6260;DHT22;3163;51.516;4.000;2023-03-01T00:33:11;7.40;99.90
6260;DHT22;3163;51.516;4.000;2023-03-01T00:35:37;7.40;99.90
6260;DHT22;3163;51.516;4.000;2023-03-01T00:38:03;7.40;99.90
6260;DHT22;3163;51.516;4.000;2023-03-01T00:40:31;7.40;99.90
6260;DHT22;3163;51.516;4.000;2023-03-01T00:42:57;7.40;99.90
6260;DHT22;3163;51.516;4.000;2023-03-01T00:45:23;7.40;99.90
6260;DHT22;3163;51.516;4.000;2023-03-01T00:47:49;7.40;99.90
6260;DHT22;3163;51.516;4.000;2023-03-01T00:50:15;7.40;99.90
6260;DHT22;3163;51.516;4.000;2023-03-01T00:52:41;7.40;99.90
6260;DHT22;3163;51.516;4.000;2023-03-01T00:55:07;7.40;99.90
6260;DHT22;3163;51.516;4.000;2023-03-01T00:57:33;7.40;99.90
6260;DHT22;3163;51.516;4.000;2023-03-01T00:59:59;7.40;99.90
6260;DHT22;3163;51.516;4.000;2023-03-01T01:02:25;7.40;99.90
6260;DHT22;3163;51.516;4.000;2023-03-01T01:04:50;7.40;99.90
6260;DHT22;3163;51.516;4.000;2023-03-01T01:07:16;7.50;99.90
6260;DHT22;3163;51.516;4.000;2023-03-01T01:09:42;7.50;99.90
6260;DHT22;3163;51.516;4.000;2023-03-01T01:12:08;7.50;99.90
6260;DHT22;3163;51.516;4.000;2023-03-01T01:14:34;7.50;99.90
6260;DHT22;3163;51.516;4.000;2023-03-01T01:17:00;7.40;99.90
6260;DHT22;3163;51.516;4.000;2023-03-01T01:19:26;7.40;99.90
6260;DHT22;3163;51.516;4.000;2023-03-01T01:21:52;7.40;99.90
6260;DHT22;3163;51.516;4.000;2023-03-01T01:24:18;7.40;99.90
6260;DHT22;3163;51.516;4.000;2023-03-01T01:26:44;7.40;99.90
6260;DHT22;3163;51.516;4.000;2023-03-01T01:29:10;7.40;99.90
6260;DHT22;3163;51.516;4.000;2023-03-01T01:31:38;7.30;99.90
6260;DHT22;3163;51.516;4.000;2023-03-01T01:34:06;7.30;99.90
6260;DHT22;3163;51.516;4.000;2023-03-01T01:36:32;7.30;99.90
6260;DHT22;3163;51.516;4.000;2023-03-01T01:38:59;7.30;99.90
6260;DHT22;3163;51.516;4.000;2023-03-01T01:41:26;7.30;99.90
6260;DHT22;3163;51.516;4.000;2023-03-01T01:47:08;7.30;99.90
6260;DHT22;3163;51.516;4.000;2023-03-01T01:49:47;7.30;99.90
6260;DHT22;3163;51.516;4.000;2023-03-01T01:52:29;7.30;99.90
6260;DHT22;3163;51.516;4.000;2023-03-01T01:55:21;7.30;99.90
6260;DHT22;3163;51.516;4.000;2023-03-01T01:57:52;7.30;99.90
6260;DHT22;3163;51.516;4.000;2023-03-01T02:00:27;7.30;99.90
6260;DHT22;3163;51.516;4.000;2023-03-01T02:03:14;7.30;99.90
6260;DHT22;3163;51.516;4.000;2023-03-01T02:08:29;7.30;99.90
6260;DHT22;3163;51.516;4.000;2023-03-01T02:10:57;7.30;99.90
6260;DHT22;3163;51.516;4.000;2023-03-01T02:13:25;7.20;99.90
6260;DHT22;3163;51.516;4.000;2023-03-01T02:15:51;7.20;99.90
6260;DHT22;3163;51.516;4.000;2023-03-01T02:18:18;7.30;99.90
6260;DHT22;3163;51.516;4.000;2023-03-01T02:23:48;7.30;99.90
6260;DHT22;3163;51.516;4.000;2023-03-01T02:26:34;7.40;99.90
6260;DHT22;3163;51.516;4.000;2023-03-01T02:29:02;7.30;99.90
6260;DHT22;3163;51.516;4.000;2023-03-01T02:31:28;7.30;99.90
6260;DHT22;3163;51.516;4.000;2023-03-01T02:36:49;7.30;99.90
6260;DHT22;3163;51.516;4.000;2023-03-01T02:39:24;7.20;99.90
6260;DHT22;3163;51.516;4.000;2023-03-01T02:41:52;7.20;99.90
6260;DHT22;3163;51.516;4.000;2023-03-01T02:44:19;7.20;99.90
6260;DHT22;3163;51.516;4.000;2023-03-01T02:46:47;7.20;99.90
6260;DHT22;3163;51.516;4.000;2023-03-01T02:49:23;7.20;99.90
6260;DHT22;3163;51.516;4.000;2023-03-01T02:57:12;7.20;99.90
6260;DHT22;3163;51.516;4.000;2023-03-01T02:59:38;7.20;99.90
6260;DHT22;3163;51.516;4.000;2023-03-01T03:02:07;7.20;99.90
6260;DHT22;3163;51.516;4.000;2023-03-01T03:04:32;7.20;99.90
6260;DHT22;3163;51.516;4.000;2023-03-01T03:06:58;7.10;99.90
6260;DHT22;3163;51.516;4.000;2023-03-01T03:09:24;7.20;99.90
6260;DHT22;3163;51.516;4.000;2023-03-01T03:11:49;7.20;99.90
6260;DHT22;3163;51.516;4.000;2023-03-01T03:14:16;7.20;99.90
6260;DHT22;3163;51.516;4.000;2023-03-01T03:16:45;7.10;99.90
6260;DHT22;3163;51.516;4.000;2023-03-01T03:19:11;7.10;99.90
6260;DHT22;3163;51.516;4.000;2023-03-01T03:21:36;7.20;99.90
6260;DHT22;3163;51.516;4.000;2023-03-01T03:24:03;7.10;99.90
6260;DHT22;3163;51.516;4.000;2023-03-01T03:26:29;7.10;99.90
6260;DHT22;3163;51.516;4.000;2023-03-01T03:28:54;7.20;99.90
6260;DHT22;3163;51.516;4.000;2023-03-01T03:31:20;7.20;99.90
6260;DHT22;3163;51.516;4.000;2023-03-01T03:33:46;7.20;99.90
6260;DHT22;3163;51.516;4.000;2023-03-01T03:36:23;7.20;99.90
6260;DHT22;3163;51.516;4.000;2023-03-01T03:38:48;7.30;99.90
6260;DHT22;3163;51.516;4.000;2023-03-01T03:41:15;7.20;99.90
6260;DHT22;3163;51.516;4.000;2023-03-01T03:43:41;7.20;99.90
6260;DHT22;3163;51.516;4.000;2023-03-01T03:46:08;7.20;99.90
6260;DHT22;3163;51.516;4.000;2023-03-01T03:48:40;7.20;99.90
6260;DHT22;3163;51.516;4.000;2023-03-01T03:51:06;7.10;99.90
6260;DHT22;3163;51.516;4.000;2023-03-01T03:53:33;7.10;99.90
6260;DHT22;3163;51.516;4.000;2023-03-01T03:55:59;7.10;99.90
6260;DHT22;3163;51.516;4.000;2023-03-01T03:58:25;7.10;99.90
6260;DHT22;3163;51.516;4.000;2023-03-01T04:00:53;7.10;99.90
6260;DHT22;3163;51.516;4.000;2023-03-01T04:03:22;7.10;99.90
6260;DHT22;3163;51.516;4.000;2023-03-01T04:05:49;7.10;99.90
6260;DHT22;3163;51.516;4.000;2023-03-01T04:08:16;7.10;99.90
6260;DHT22;3163;51.516;4.000;2023-03-01T04:10:46;7.00;99.90
6260;DHT22;3163;51.516;4.000;2023-03-01T04:13:15;7.10;99.90
6260;DHT22;3163;51.516;4.000;2023-03-01T04:15:41;7.10;99.90
6260;DHT22;3163;51.516;4.000;2023-03-01T04:18:09;7.10;99.90
6260;DHT22;3163;51.516;4.000;2023-03-01T04:20:37;7.00;99.90
6260;DHT22;3163;51.516;4.000;2023-03-01T04:23:14;7.10;99.90
6260;DHT22;3163;51.516;4.000;2023-03-01T04:25:56;7.00;99.90
6260;DHT22;3163;51.516;4.000;2023-03-01T04:28:41;7.00;99.90
6260;DHT22;3163;51.516;4.000;2023-03-01T04:31:13;7.00;99.90
6260;DHT22;3163;51.516;4.000;2023-03-01T04:33:56;7.00;99.90
6260;DHT22;3163;51.516;4.000;2023-03-01T04:36:24;7.00;99.90
6260;DHT22;3163;51.516;4.000;2023-03-01T04:38:50;7.00;99.90
6260;DHT22;3163;51.516;4.000;2023-03-01T04:41:19;7.00;99.90
6260;DHT22;3163;51.516;4.000;2023-03-01T04:43:46;7.10;99.90
6260;DHT22;3163;51.516;4.000;2023-03-01T04:46:14;7.10;99.90
6260;DHT22;3163;51.516;4.000;2023-03-01T04:48:40;7.10;99.90
6260;DHT22;3163;51.516;4.000;2023-03-01T04:51:06;7.10;99.90
6260;DHT22;3163;51.516;4.000;2023-03-01T04:53:33;7.10;99.90
6260;DHT22;3163;51.516;4.000;2023-03-01T04:55:59;7.10;99.90
6260;DHT22;3163;51.516;4.000;2023-03-01T04:58:26;7.10;99.90
6260;DHT22;3163;51.516;4.000;2023-03-01T05:00:52;7.00;99.90
6260;DHT22;3163;51.516;4.000;2023-03-01T05:03:19;7.10;99.90
6260;DHT22;3163;51.516;4.000;2023-03-01T05:05:49;7.10;99.90
6260;DHT22;3163;51.516;4.000;2023-03-01T05:08:15;7.00;99.90
6260;DHT22;3163;51.516;4.000;2023-03-01T05:10:49;7.00;99.90
6260;DHT22;3163;51.516;4.000;2023-03-01T05:13:15;7.00;99.90
6260;DHT22;3163;51.516;4.000;2023-03-01T05:15:47;7.00;99.90
6260;DHT22;3163;51.516;4.000;2023-03-01T05:18:13;7.00;99.90
6260;DHT22;3163;51.516;4.000;2023-03-01T05:20:38;6.90;99.90
6260;DHT22;3163;51.516;4.000;2023-03-01T05:23:05;6.90;99.90
6260;DHT22;3163;51.516;4.000;2023-03-01T05:25:32;6.80;99.90
6260;DHT22;3163;51.516;4.000;2023-03-01T05:28:02;6.90;99.90
6260;DHT22;3163;51.516;4.000;2023-03-01T05:30:31;6.80;99.90
6260;DHT22;3163;51.516;4.000;2023-03-01T05:32:58;6.80;99.90
6260;DHT22;3163;51.516;4.000;2023-03-01T05:35:24;6.80;99.90
6260;DHT22;3163;51.516;4.000;2023-03-01T05:37:49;6.90;99.90
6260;DHT22;3163;51.516;4.000;2023-03-01T05:40:20;6.80;99.90
6260;DHT22;3163;51.516;4.000;2023-03-01T05:42:48;6.90;99.90
6260;DHT22;3163;51.516;4.000;2023-03-01T05:45:15;6.80;99.90
6260;DHT22;3163;51.516;4.000;2023-03-01T05:47:42;6.80;99.90
6260;DHT22;3163;51.516;4.000;2023-03-01T05:50:20;6.80;99.90
6260;DHT22;3163;51.516;4.000;2023-03-01T05:52:51;6.80;99.90
6260;DHT22;3163;51.516;4.000;2023-03-01T05:55:19;6.80;99.90
6260;DHT22;3163;51.516;4.000;2023-03-01T05:57:46;6.80;99.90
6260;DHT22;3163;51.516;4.000;2023-03-01T06:00:13;6.80;99.90
6260;DHT22;3163;51.516;4.000;2023-03-01T06:02:39;6.80;99.90
6260;DHT22;3163;51.516;4.000;2023-03-01T06:05:06;6.90;99.90
6260;DHT22;3163;51.516;4.000;2023-03-01T06:07:32;6.90;99.90
6260;DHT22;3163;51.516;4.000;2023-03-01T06:09:58;6.90;99.90
6260;DHT22;3163;51.516;4.000;2023-03-01T06:12:23;6.90;99.90
6260;DHT22;3163;51.516;4.000;2023-03-01T06:14:49;6.90;99.90
6260;DHT22;3163;51.516;4.000;2023-03-01T06:17:15;6.90;99.90
6260;DHT22;3163;51.516;4.000;2023-03-01T06:19:40;6.90;99.90
6260;DHT22;3163;51.516;4.000;2023-03-01T06:22:06;6.90;99.90
6260;DHT22;3163;51.516;4.000;2023-03-01T06:24:32;6.90;99.90
6260;DHT22;3163;51.516;4.000;2023-03-01T06:26:58;6.90;99.90
6260;DHT22;3163;51.516;4.000;2023-03-01T06:29:24;6.90;99.90
6260;DHT22;3163;51.516;4.000;2023-03-01T06:31:49;6.90;99.90
6260;DHT22;3163;51.516;4.000;2023-03-01T06:34:15;6.90;99.90
6260;DHT22;3163;51.516;4.000;2023-03-01T06:36:40;6.90;99.90
6260;DHT22;3163;51.516;4.000;2023-03-01T06:39:06;6.90;99.90
6260;DHT22;3163;51.516;4.000;2023-03-01T06:41:32;6.90;99.90
6260;DHT22;3163;51.516;4.000;2023-03-01T06:43:59;6.90;99.90
6260;DHT22;3163;51.516;4.000;2023-03-01T06:46:24;6.90;99.90
6260;DHT22;3163;51.516;4.000;2023-03-01T06:48:50;6.90;99.90
6260;DHT22;3163;51.516;4.000;2023-03-01T06:51:16;6.90;99.90
6260;DHT22;3163;51.516;4.000;2023-03-01T06:53:41;7.00;99.90
6260;DHT22;3163;51.516;4.000;2023-03-01T06:56:07;7.00;99.90
6260;DHT22;3163;51.516;4.000;2023-03-01T06:58:32;7.00;99.90
6260;DHT22;3163;51.516;4.000;2023-03-01T07:00:58;7.00;99.90
6260;DHT22;3163;51.516;4.000;2023-03-01T07:03:23;7.10;99.90
6260;DHT22;3163;51.516;4.000;2023-03-01T07:05:50;7.10;99.90
6260;DHT22;3163;51.516;4.000;2023-03-01T07:08:17;7.10;99.90
6260;DHT22;3163;51.516;4.000;2023-03-01T07:10:43;7.10;99.90
6260;DHT22;3163;51.516;4.000;2023-03-01T07:13:09;7.20;99.90
6260;DHT22;3163;51.516;4.000;2023-03-01T07:15:34;7.30;99.90
6260;DHT22;3163;51.516;4.000;2023-03-01T07:18:00;7.30;99.90
6260;DHT22;3163;51.516;4.000;2023-03-01T07:20:26;7.40;99.90
6260;DHT22;3163;51.516;4.000;2023-03-01T07:22:52;7.50;99.90
6260;DHT22;3163;51.516;4.000;2023-03-01T07:25:18;7.50;99.90
6260;DHT22;3163;51.516;4.000;2023-03-01T07:27:43;7.50;99.90
6260;DHT22;3163;51.516;4.000;2023-03-01T07:30:13;7.40;99.90
6260;DHT22;3163;51.516;4.000;2023-03-01T07:32:39;7.40;99.90
6260;DHT22;3163;51.516;4.000;2023-03-01T07:35:05;7.40;99.90
6260;DHT22;3163;51.516;4.000;2023-03-01T07:37:31;7.40;99.90
6260;DHT22;3163;51.516;4.000;2023-03-01T07:39:56;7.40;99.90
6260;DHT22;3163;51.516;4.000;2023-03-01T07:42:23;7.40;99.90
6260;DHT22;3163;51.516;4.000;2023-03-01T07:44:48;7.50;99.90
6260;DHT22;3163;51.516;4.000;2023-03-01T07:47:14;7.60;99.90
6260;DHT22;3163;51.516;4.000;2023-03-01T07:49:39;7.60;99.90
6260;DHT22;3163;51.516;4.000;2023-03-01T07:52:05;7.60;99.90
6260;DHT22;3163;51.516;4.000;2023-03-01T07:54:31;7.60;99.90
6260;DHT22;3163;51.516;4.000;2023-03-01T07:56:57;7.60;99.90
6260;DHT22;3163;51.516;4.000;2023-03-01T07:59:23;7.80;99.90
6260;DHT22;3163;51.516;4.000;2023-03-01T08:01:55;7.70;99.90
6260;DHT22;3163;51.516;4.000;2023-03-01T08:04:21;7.80;99.90
6260;DHT22;3163;51.516;4.000;2023-03-01T08:06:46;7.80;99.90
6260;DHT22;3163;51.516;4.000;2023-03-01T08:09:12;8.00;99.90
6260;DHT22;3163;51.516;4.000;2023-03-01T08:11:37;8.00;99.90
6260;DHT22;3163;51.516;4.000;2023-03-01T08:14:03;8.10;99.90
6260;DHT22;3163;51.516;4.000;2023-03-01T08:16:29;8.10;99.90
6260;DHT22;3163;51.516;4.000;2023-03-01T08:18:54;8.20;99.90
6260;DHT22;3163;51.516;4.000;2023-03-01T08:21:22;8.40;99.90
6260;DHT22;3163;51.516;4.000;2023-03-01T08:23:47;5.40;99.90
6260;DHT22;3163;51.516;4.000;2023-03-01T08:26:16;5.10;99.90
6260;DHT22;3163;51.516;4.000;2023-03-01T08:28:42;7.00;99.90
6260;DHT22;3163;51.516;4.000;2023-03-01T08:31:18;7.60;99.90
6260;DHT22;3163;51.516;4.000;2023-03-01T08:33:46;7.90;99.90
6260;DHT22;3163;51.516;4.000;2023-03-01T08:36:17;8.00;99.90
6260;DHT22;3163;51.516;4.000;2023-03-01T08:38:43;8.10;99.90
6260;DHT22;3163;51.516;4.000;2023-03-01T08:41:09;8.10;99.90
6260;DHT22;3163;51.516;4.000;2023-03-01T08:43:35;8.20;99.90
6260;DHT22;3163;51.516;4.000;2023-03-01T08:46:00;8.30;99.90
6260;DHT22;3163;51.516;4.000;2023-03-01T08:48:27;8.30;99.90
6260;DHT22;3163;51.516;4.000;2023-03-01T08:50:53;8.40;99.90
6260;DHT22;3163;51.516;4.000;2023-03-01T08:53:19;8.60;99.90
6260;DHT22;3163;51.516;4.000;2023-03-01T08:55:45;8.70;99.90
6260;DHT22;3163;51.516;4.000;2023-03-01T08:58:10;8.60;99.90
6260;DHT22;3163;51.516;4.000;2023-03-01T09:00:36;8.80;99.90
6260;DHT22;3163;51.516;4.000;2023-03-01T09:03:02;8.80;99.90
6260;DHT22;3163;51.516;4.000;2023-03-01T09:05:28;8.90;99.90
6260;DHT22;3163;51.516;4.000;2023-03-01T09:07:53;9.00;99.90
6260;DHT22;3163;51.516;4.000;2023-03-01T09:10:19;9.10;99.90
6260;DHT22;3163;51.516;4.000;2023-03-01T09:12:44;9.20;99.90
6260;DHT22;3163;51.516;4.000;2023-03-01T09:15:10;9.30;99.90
6260;DHT22;3163;51.516;4.000;2023-03-01T09:17:36;9.30;99.90
6260;DHT22;3163;51.516;4.000;2023-03-01T09:20:02;9.30;99.90
6260;DHT22;3163;51.516;4.000;2023-03-01T09:22:28;9.50;99.90
6260;DHT22;3163;51.516;4.000;2023-03-01T09:24:53;9.60;99.90
6260;DHT22;3163;51.516;4.000;2023-03-01T09:27:19;9.70;99.90
6260;DHT22;3163;51.516;4.000;2023-03-01T09:29:45;9.60;99.90
6260;DHT22;3163;51.516;4.000;2023-03-01T09:32:10;9.60;99.90
6260;DHT22;3163;51.516;4.000;2023-03-01T09:34:36;9.80;99.90
6260;DHT22;3163;51.516;4.000;2023-03-01T09:37:22;9.70;99.90
6260;DHT22;3163;51.516;4.000;2023-03-01T09:39:48;9.80;99.90
6260;DHT22;3163;51.516;4.000;2023-03-01T09:42:13;9.70;99.90
6260;DHT22;3163;51.516;4.000;2023-03-01T09:44:56;9.70;99.90
6260;DHT22;3163;51.516;4.000;2023-03-01T09:47:31;9.80;99.90
6260;DHT22;3163;51.516;4.000;2023-03-01T09:50:05;9.50;99.90
6260;DHT22;3163;51.516;4.000;2023-03-01T09:55:32;9.50;99.90
6260;DHT22;3163;51.516;4.000;2023-03-01T10:00:49;9.50;99.90
6260;DHT22;3163;51.516;4.000;2023-03-01T10:03:21;9.80;99.90
6260;DHT22;3163;51.516;4.000;2023-03-01T10:05:56;9.90;99.90
6260;DHT22;3163;51.516;4.000;2023-03-01T10:08:34;10.00;99.90
6260;DHT22;3163;51.516;4.000;2023-03-01T10:11:05;10.00;99.90
6260;DHT22;3163;51.516;4.000;2023-03-01T10:13:50;10.20;99.90
6260;DHT22;3163;51.516;4.000;2023-03-01T10:16:28;10.30;99.90
6260;DHT22;3163;51.516;4.000;2023-03-01T10:19:00;10.20;99.90
6260;DHT22;3163;51.516;4.000;2023-03-01T10:21:28;10.40;99.90
6260;DHT22;3163;51.516;4.000;2023-03-01T10:24:08;10.30;99.90
6260;DHT22;3163;51.516;4.000;2023-03-01T10:29:14;10.40;99.90
6260;DHT22;3163;51.516;4.000;2023-03-01T10:31:43;10.50;99.90
6260;DHT22;3163;51.516;4.000;2023-03-01T10:36:42;10.40;99.90
6260;DHT22;3163;51.516;4.000;2023-03-01T10:39:28;10.20;99.90
6260;DHT22;3163;51.516;4.000;2023-03-01T10:42:04;10.20;99.90
6260;DHT22;3163;51.516;4.000;2023-03-01T10:47:03;10.40;99.90
6260;DHT22;3163;51.516;4.000;2023-03-01T10:49:29;10.20;99.90
6260;DHT22;3163;51.516;4.000;2023-03-01T10:51:55;10.30;99.90
6260;DHT22;3163;51.516;4.000;2023-03-01T10:54:32;10.40;99.90
6260;DHT22;3163;51.516;4.000;2023-03-01T10:57:04;10.70;99.90
6260;DHT22;3163;51.516;4.000;2023-03-01T10:59:37;10.90;99.90
6260;DHT22;3163;51.516;4.000;2023-03-01T11:02:22;10.70;99.90
6260;DHT22;3163;51.516;4.000;2023-03-01T11:05:16;10.70;99.90
6260;DHT22;3163;51.516;4.000;2023-03-01T11:07:56;11.00;99.90
6260;DHT22;3163;51.516;4.000;2023-03-01T11:10:32;10.90;99.90
6260;DHT22;3163;51.516;4.000;2023-03-01T11:13:14;10.50;99.90
6260;DHT22;3163;51.516;4.000;2023-03-01T11:15:41;10.60;99.90
6260;DHT22;3163;51.516;4.000;2023-03-01T11:18:20;10.60;99.90
6260;DHT22;3163;51.516;4.000;2023-03-01T11:20:48;10.70;99.90
6260;DHT22;3163;51.516;4.000;2023-03-01T11:23:15;10.70;99.90
6260;DHT22;3163;51.516;4.000;2023-03-01T11:26:04;11.00;99.90
6260;DHT22;3163;51.516;4.000;2023-03-01T11:28:31;10.70;99.90
6260;DHT22;3163;51.516;4.000;2023-03-01T11:31:07;10.50;99.90
6260;DHT22;3163;51.516;4.000;2023-03-01T11:33:58;10.70;99.90
6260;DHT22;3163;51.516;4.000;2023-03-01T11:36:40;10.80;99.90
6260;DHT22;3163;51.516;4.000;2023-03-01T11:39:28;11.20;99.90
6260;DHT22;3163;51.516;4.000;2023-03-01T11:42:11;11.60;99.90
6260;DHT22;3163;51.516;4.000;2023-03-01T11:44:38;11.20;99.90
6260;DHT22;3163;51.516;4.000;2023-03-01T11:47:15;11.10;99.90
6260;DHT22;3163;51.516;4.000;2023-03-01T11:49:54;11.10;99.90
6260;DHT22;3163;51.516;4.000;2023-03-01T11:55:36;10.60;99.90
6260;DHT22;3163;51.516;4.000;2023-03-01T12:00:54;10.40;99.90
6260;DHT22;3163;51.516;4.000;2023-03-01T12:15:11;11.00;99.90
6260;DHT22;3163;51.516;4.000;2023-03-01T12:20:21;11.30;99.90
6260;DHT22;3163;51.516;4.000;2023-03-01T12:46:25;11.70;99.90
6260;DHT22;3163;51.516;4.000;2023-03-01T12:51:38;11.70;99.90
6260;DHT22;3163;51.516;4.000;2023-03-01T12:54:16;8.20;99.90
6260;DHT22;3163;51.516;4.000;2023-03-01T12:56:46;10.30;99.90
6260;DHT22;3163;51.516;4.000;2023-03-01T12:59:42;11.10;99.90
6260;DHT22;3163;51.516;4.000;2023-03-01T13:10:03;11.70;99.90
6260;DHT22;3163;51.516;4.000;2023-03-01T13:13:00;11.90;99.90
6260;DHT22;3163;51.516;4.000;2023-03-01T13:15:35;11.30;99.90
6260;DHT22;3163;51.516;4.000;2023-03-01T13:18:11;11.90;99.90
6260;DHT22;3163;51.516;4.000;2023-03-01T13:20:52;11.90;99.90
6260;DHT22;3163;51.516;4.000;2023-03-01T13:28:51;11.20;99.90
6260;DHT22;3163;51.516;4.000;2023-03-01T13:36:10;11.20;99.90
6260;DHT22;3163;51.516;4.000;2023-03-01T13:44:25;10.90;99.90
6260;DHT22;3163;51.516;4.000;2023-03-01T13:46:55;11.00;99.90
6260;DHT22;3163;51.516;4.000;2023-03-01T13:49:23;11.00;99.90
6260;DHT22;3163;51.516;4.000;2023-03-01T13:51:51;11.50;99.90
6260;DHT22;3163;51.516;4.000;2023-03-01T13:54:30;11.70;99.90
6260;DHT22;3163;51.516;4.000;2023-03-01T13:56:58;11.50;99.90
6260;DHT22;3163;51.516;4.000;2023-03-01T13:59:24;11.50;99.90
6260;DHT22;3163;51.516;4.000;2023-03-01T14:01:56;10.70;99.90
6260;DHT22;3163;51.516;4.000;2023-03-01T14:04:26;11.00;99.90
6260;DHT22;3163;51.516;4.000;2023-03-01T14:07:08;11.40;99.90
6260;DHT22;3163;51.516;4.000;2023-03-01T14:09:37;11.10;99.90
6260;DHT22;3163;51.516;4.000;2023-03-01T14:34:51;10.30;99.90
6260;DHT22;3163;51.516;4.000;2023-03-01T14:37:24;10.10;99.90
6260;DHT22;3163;51.516;4.000;2023-03-01T14:39:50;10.50;99.90
6260;DHT22;3163;51.516;4.000;2023-03-01T14:42:16;10.70;99.90
6260;DHT22;3163;51.516;4.000;2023-03-01T14:44:47;10.50;99.90
6260;DHT22;3163;51.516;4.000;2023-03-01T14:47:19;10.50;99.90
6260;DHT22;3163;51.516;4.000;2023-03-01T14:49:51;10.30;99.90
6260;DHT22;3163;51.516;4.000;2023-03-01T14:52:25;10.40;99.90
6260;DHT22;3163;51.516;4.000;2023-03-01T14:54:52;10.20;99.90
6260;DHT22;3163;51.516;4.000;2023-03-01T14:57:24;10.20;99.90
6260;DHT22;3163;51.516;4.000;2023-03-01T14:59:52;10.60;99.90
6260;DHT22;3163;51.516;4.000;2023-03-01T15:02:21;10.80;99.90
6260;DHT22;3163;51.516;4.000;2023-03-01T15:04:50;10.60;99.90
6260;DHT22;3163;51.516;4.000;2023-03-01T15:07:17;10.60;99.90
6260;DHT22;3163;51.516;4.000;2023-03-01T15:09:43;10.60;99.90
6260;DHT22;3163;51.516;4.000;2023-03-01T15:14:53;10.90;99.90
6260;DHT22;3163;51.516;4.000;2023-03-01T15:17:32;10.60;99.90
6260;DHT22;3163;51.516;4.000;2023-03-01T15:20:00;11.00;99.90
6260;DHT22;3163;51.516;4.000;2023-03-01T15:22:27;10.70;99.90
6260;DHT22;3163;51.516;4.000;2023-03-01T15:24:53;10.90;99.90
6260;DHT22;3163;51.516;4.000;2023-03-01T15:27:21;10.90;99.90
6260;DHT22;3163;51.516;4.000;2023-03-01T15:29:55;11.10;99.90
6260;DHT22;3163;51.516;4.000;2023-03-01T15:32:31;11.00;99.90
6260;DHT22;3163;51.516;4.000;2023-03-01T15:34:58;10.80;99.90
6260;DHT22;3163;51.516;4.000;2023-03-01T15:37:46;10.90;99.90
6260;DHT22;3163;51.516;4.000;2023-03-01T15:40:27;10.90;99.90
6260;DHT22;3163;51.516;4.000;2023-03-01T15:43:04;10.80;99.90
6260;DHT22;3163;51.516;4.000;2023-03-01T15:45:31;10.70;99.90
6260;DHT22;3163;51.516;4.000;2023-03-01T15:48:15;10.90;99.90
6260;DHT22;3163;51.516;4.000;2023-03-01T15:50:42;10.80;99.90
6260;DHT22;3163;51.516;4.000;2023-03-01T15:53:13;10.90;99.90
6260;DHT22;3163;51.516;4.000;2023-03-01T15:55:41;10.80;99.90
6260;DHT22;3163;51.516;4.000;2023-03-01T15:58:14;10.50;99.90
6260;DHT22;3163;51.516;4.000;2023-03-01T16:00:41;10.30;99.90
6260;DHT22;3163;51.516;4.000;2023-03-01T16:03:08;10.20;99.90
6260;DHT22;3163;51.516;4.000;2023-03-01T16:05:36;10.30;99.90
6260;DHT22;3163;51.516;4.000;2023-03-01T16:08:03;10.30;99.90
6260;DHT22;3163;51.516;4.000;2023-03-01T16:10:29;10.30;99.90
6260;DHT22;3163;51.516;4.000;2023-03-01T16:12:55;10.60;99.90
6260;DHT22;3163;51.516;4.000;2023-03-01T16:17:51;10.30;99.90
6260;DHT22;3163;51.516;4.000;2023-03-01T16:20:21;10.40;99.90
6260;DHT22;3163;51.516;4.000;2023-03-01T16:22:46;10.30;99.90
6260;DHT22;3163;51.516;4.000;2023-03-01T16:25:14;10.30;99.90
6260;DHT22;3163;51.516;4.000;2023-03-01T16:27:45;10.30;99.90
6260;DHT22;3163;51.516;4.000;2023-03-01T16:30:12;10.20;99.90
6260;DHT22;3163;51.516;4.000;2023-03-01T16:32:42;10.30;99.90
6260;DHT22;3163;51.516;4.000;2023-03-01T16:35:10;10.30;99.90
6260;DHT22;3163;51.516;4.000;2023-03-01T16:37:36;10.30;99.90
6260;DHT22;3163;51.516;4.000;2023-03-01T16:40:04;10.30;99.90
6260;DHT22;3163;51.516;4.000;2023-03-01T16:42:36;10.20;99.90
6260;DHT22;3163;51.516;4.000;2023-03-01T16:45:03;10.10;99.90
6260;DHT22;3163;51.516;4.000;2023-03-01T16:47:29;10.10;99.90
6260;DHT22;3163;51.516;4.000;2023-03-01T16:49:55;10.10;99.90
6260;DHT22;3163;51.516;4.000;2023-03-01T16:52:21;10.10;99.90
6260;DHT22;3163;51.516;4.000;2023-03-01T16:54:47;10.10;99.90
6260;DHT22;3163;51.516;4.000;2023-03-01T16:57:13;10.10;99.90
6260;DHT22;3163;51.516;4.000;2023-03-01T16:59:39;10.20;99.90
6260;DHT22;3163;51.516;4.000;2023-03-01T17:02:08;10.10;99.90
6260;DHT22;3163;51.516;4.000;2023-03-01T17:04:35;10.20;99.90
6260;DHT22;3163;51.516;4.000;2023-03-01T17:07:00;10.10;99.90
6260;DHT22;3163;51.516;4.000;2023-03-01T17:09:26;10.10;99.90
6260;DHT22;3163;51.516;4.000;2023-03-01T17:11:51;10.00;99.90
6260;DHT22;3163;51.516;4.000;2023-03-01T17:14:17;9.90;99.90
6260;DHT22;3163;51.516;4.000;2023-03-01T17:16:43;10.00;99.90
6260;DHT22;3163;51.516;4.000;2023-03-01T17:19:10;10.20;99.90
6260;DHT22;3163;51.516;4.000;2023-03-01T17:21:36;10.20;99.90
6260;DHT22;3163;51.516;4.000;2023-03-01T17:24:02;10.20;99.90
6260;DHT22;3163;51.516;4.000;2023-03-01T17:26:28;10.10;99.90
6260;DHT22;3163;51.516;4.000;2023-03-01T17:28:54;10.00;99.90
6260;DHT22;3163;51.516;4.000;2023-03-01T17:31:21;10.10;99.90
6260;DHT22;3163;51.516;4.000;2023-03-01T17:33:47;10.10;99.90
6260;DHT22;3163;51.516;4.000;2023-03-01T17:36:15;10.00;99.90
6260;DHT22;3163;51.516;4.000;2023-03-01T17:38:40;10.10;99.90
6260;DHT22;3163;51.516;4.000;2023-03-01T17:41:06;10.10;99.90
6260;DHT22;3163;51.516;4.000;2023-03-01T17:43:32;10.00;99.90
6260;DHT22;3163;51.516;4.000;2023-03-01T17:45:59;10.00;99.90
6260;DHT22;3163;51.516;4.000;2023-03-01T17:48:25;10.00;99.90
6260;DHT22;3163;51.516;4.000;2023-03-01T17:50:50;10.10;99.90
6260;DHT22;3163;51.516;4.000;2023-03-01T17:53:16;10.00;99.90
6260;DHT22;3163;51.516;4.000;2023-03-01T17:55:43;10.00;99.90
6260;DHT22;3163;51.516;4.000;2023-03-01T17:58:11;10.00;99.90
6260;DHT22;3163;51.516;4.000;2023-03-01T18:00:37;10.00;99.90
6260;DHT22;3163;51.516;4.000;2023-03-01T18:03:03;10.00;99.90
6260;DHT22;3163;51.516;4.000;2023-03-01T18:05:33;9.90;99.90
6260;DHT22;3163;51.516;4.000;2023-03-01T18:07:59;9.80;99.90
6260;DHT22;3163;51.516;4.000;2023-03-01T18:10:25;9.70;99.90
6260;DHT22;3163;51.516;4.000;2023-03-01T18:12:51;9.70;99.90
6260;DHT22;3163;51.516;4.000;2023-03-01T18:15:17;9.50;99.90
6260;DHT22;3163;51.516;4.000;2023-03-01T18:17:43;9.50;99.90
6260;DHT22;3163;51.516;4.000;2023-03-01T18:20:09;9.40;99.90
6260;DHT22;3163;51.516;4.000;2023-03-01T18:22:35;9.40;99.90
6260;DHT22;3163;51.516;4.000;2023-03-01T18:25:02;9.40;99.90
6260;DHT22;3163;51.516;4.000;2023-03-01T18:27:29;9.40;99.90
6260;DHT22;3163;51.516;4.000;2023-03-01T18:29:55;9.40;99.90
6260;DHT22;3163;51.516;4.000;2023-03-01T18:32:21;9.40;99.90